sensor_id;sensor_type;location;lat;lon;timestamp;pressure;altitude;pressure_sealevel;temperature;humidity
39309;BME280;26019;47.510;19.122;2023-04-30T00:06:20;100107.31;;;11.90;100.00
39309;BME280;26019;47.510;19.122;2023-04-30T00:16:22;100110.63;;;11.38;100.00
39309;BME280;26019;47.510;19.122;2023-04-30T00:26:25;100112.03;;;10.92;100.00
39309;BME280;26019;47.510;19.122;2023-04-30T00:46:38;100094.50;;;10.25;100.00
39309;BME280;26019;47.510;19.122;2023-04-30T00:56:42;100102.44;;;10.03;100.00
39309;BME280;26019;47.510;19.122;2023-04-30T01:06:44;100097.31;;;9.97;100.00
39309;BME280;26019;47.510;19.122;2023-04-30T01:16:55;100097.13;;;10.23;100.00
39309;BME280;26019;47.510;19.122;2023-04-30T01:37:30;100085.03;;;10.27;100.00
39309;BME280;26019;47.510;19.122;2023-04-30T01:58:03;100096.16;;;10.35;100.00
39309;BME280;26019;47.510;19.122;2023-04-30T02:08:06;100099.53;;;10.48;100.00
39309;BME280;26019;47.510;19.122;2023-04-30T02:18:07;100078.94;;;10.34;100.00
39309;BME280;26019;47.510;19.122;2023-04-30T02:28:09;100087.59;;;10.28;100.00
39309;BME280;26019;47.510;19.122;2023-04-30T02:38:11;100091.19;;;10.12;100.00
39309;BME280;26019;47.510;19.122;2023-04-30T02:48:15;100096.47;;;9.95;100.00
39309;BME280;26019;47.510;19.122;2023-04-30T02:58:18;100117.22;;;9.81;100.00
39309;BME280;26019;47.510;19.122;2023-04-30T03:08:22;100105.16;;;9.80;100.00
39309;BME280;26019;47.510;19.122;2023-04-30T03:18:25;100090.53;;;9.77;100.00
39309;BME280;26019;47.510;19.122;2023-04-30T03:28:27;100099.06;;;9.93;100.00
39309;BME280;26019;47.510;19.122;2023-04-30T03:38:30;100105.75;;;10.22;100.00
39309;BME280;26019;47.510;19.122;2023-04-30T03:48:32;100114.63;;;10.90;100.00
39309;BME280;26019;47.510;19.122;2023-04-30T03:58:34;100115.97;;;11.22;100.00
39309;BME280;26019;47.510;19.122;2023-04-30T04:08:35;100125.09;;;11.53;100.00
39309;BME280;26019;47.510;19.122;2023-04-30T04:18:37;100152.44;;;11.74;100.00
39309;BME280;26019;47.510;19.122;2023-04-30T04:28:41;100154.25;;;11.64;100.00
39309;BME280;26019;47.510;19.122;2023-04-30T04:38:43;100173.03;;;11.80;100.00
39309;BME280;26019;47.510;19.122;2023-04-30T04:48:45;100190.13;;;11.93;100.00
39309;BME280;26019;47.510;19.122;2023-04-30T04:58:47;100189.22;;;11.96;100.00
39309;BME280;26019;47.510;19.122;2023-04-30T05:08:49;100194.94;;;11.56;100.00
39309;BME280;26019;47.510;19.122;2023-04-30T05:18:50;100184.75;;;11.42;100.00
39309;BME280;26019;47.510;19.122;2023-04-30T05:28:52;100191.31;;;11.69;100.00
39309;BME280;26019;47.510;19.122;2023-04-30T05:39:03;100217.66;;;12.02;100.00
39309;BME280;26019;47.510;19.122;2023-04-30T05:49:05;100219.88;;;12.30;100.00
39309;BME280;26019;47.510;19.122;2023-04-30T05:59:12;100215.91;;;12.64;100.00
39309;BME280;26019;47.510;19.122;2023-04-30T06:09:19;100209.72;;;12.73;100.00
39309;BME280;26019;47.510;19.122;2023-04-30T06:19:20;100218.47;;;13.17;100.00
39309;BME280;26019;47.510;19.122;2023-04-30T06:29:22;100207.66;;;13.42;100.00
39309;BME280;26019;47.510;19.122;2023-04-30T06:39:25;100217.75;;;13.98;100.00
39309;BME280;26019;47.510;19.122;2023-04-30T06:49:26;100212.38;;;14.06;100.00
39309;BME280;26019;47.510;19.122;2023-04-30T06:59:28;100205.06;;;14.60;100.00
39309;BME280;26019;47.510;19.122;2023-04-30T07:09:30;100203.09;;;15.06;100.00
39309;BME280;26019;47.510;19.122;2023-04-30T07:19:32;100218.41;;;15.50;100.00
39309;BME280;26019;47.510;19.122;2023-04-30T07:29:34;100217.28;;;15.59;100.00
39309;BME280;26019;47.510;19.122;2023-04-30T07:39:37;100220.72;;;15.59;100.00
39309;BME280;26019;47.510;19.122;2023-04-30T07:49:57;100220.78;;;15.89;98.30
39309;BME280;26019;47.510;19.122;2023-04-30T08:00:02;100241.75;;;16.43;91.47
39309;BME280;26019;47.510;19.122;2023-04-30T08:10:05;100233.72;;;16.76;87.16
39309;BME280;26019;47.510;19.122;2023-04-30T08:20:07;100234.72;;;16.99;82.30
39309;BME280;26019;47.510;19.122;2023-04-30T08:30:10;100226.19;;;17.68;71.19
39309;BME280;26019;47.510;19.122;2023-04-30T08:40:12;100222.78;;;17.90;74.73
39309;BME280;26019;47.510;19.122;2023-04-30T08:50:15;100236.94;;;18.75;57.96
39309;BME280;26019;47.510;19.122;2023-04-30T09:00:17;100224.03;;;20.29;52.36
39309;BME280;26019;47.510;19.122;2023-04-30T09:10:20;100221.41;;;22.33;41.25
39309;BME280;26019;47.510;19.122;2023-04-30T09:20:30;100219.78;;;25.41;35.98
39309;BME280;26019;47.510;19.122;2023-04-30T09:30:32;100221.72;;;23.04;37.20
39309;BME280;26019;47.510;19.122;2023-04-30T09:40:35;100209.50;;;26.48;33.98
39309;BME280;26019;47.510;19.122;2023-04-30T09:50:49;100205.75;;;22.15;38.11
39309;BME280;26019;47.510;19.122;2023-04-30T10:00:52;100203.41;;;21.27;41.86
39309;BME280;26019;47.510;19.122;2023-04-30T10:11:14;100203.78;;;21.87;40.68
39309;BME280;26019;47.510;19.122;2023-04-30T10:21:23;100188.38;;;26.11;34.74
39309;BME280;26019;47.510;19.122;2023-04-30T10:31:29;100197.19;;;23.76;37.44
39309;BME280;26019;47.510;19.122;2023-04-30T10:41:36;100196.31;;;26.71;31.34
39309;BME280;26019;47.510;19.122;2023-04-30T10:51:50;100192.53;;;34.09;21.79
39309;BME280;26019;47.510;19.122;2023-04-30T11:01:57;100193.06;;;30.03;25.47
39309;BME280;26019;47.510;19.122;2023-04-30T11:12:08;100180.22;;;25.40;31.12
39309;BME280;26019;47.510;19.122;2023-04-30T11:32:12;100180.06;;;27.57;28.54
39309;BME280;26019;47.510;19.122;2023-04-30T11:42:18;100188.88;;;31.45;23.72
39309;BME280;26019;47.510;19.122;2023-04-30T11:52:20;100191.41;;;30.12;25.36
39309;BME280;26019;47.510;19.122;2023-04-30T12:02:42;100182.88;;;31.61;22.63
39309;BME280;26019;47.510;19.122;2023-04-30T12:12:45;100170.25;;;34.50;21.14
39309;BME280;26019;47.510;19.122;2023-04-30T12:22:47;100168.41;;;35.55;18.40
39309;BME280;26019;47.510;19.122;2023-04-30T12:32:51;100160.38;;;35.07;18.82
39309;BME280;26019;47.510;19.122;2023-04-30T12:43:03;100151.94;;;32.41;20.98
39309;BME280;26019;47.510;19.122;2023-04-30T12:53:07;100139.44;;;28.43;26.69
39309;BME280;26019;47.510;19.122;2023-04-30T13:03:12;100138.34;;;32.16;22.17
39309;BME280;26019;47.510;19.122;2023-04-30T13:13:15;100131.91;;;37.73;16.88
39309;BME280;26019;47.510;19.122;2023-04-30T13:23:21;100120.91;;;36.86;16.89
39309;BME280;26019;47.510;19.122;2023-04-30T13:33:23;100120.75;;;36.57;17.23
39309;BME280;26019;47.510;19.122;2023-04-30T13:43:27;100121.47;;;39.25;14.68
39309;BME280;26019;47.510;19.122;2023-04-30T13:53:30;100129.63;;;32.14;21.21
39309;BME280;26019;47.510;19.122;2023-04-30T14:03:34;100131.63;;;28.09;25.60
39309;BME280;26019;47.510;19.122;2023-04-30T14:13:37;100123.56;;;33.44;19.88
39309;BME280;26019;47.510;19.122;2023-04-30T14:23:38;100115.63;;;28.84;24.62
39309;BME280;26019;47.510;19.122;2023-04-30T14:33:49;100126.16;;;26.88;26.73
39309;BME280;26019;47.510;19.122;2023-04-30T14:43:52;100143.47;;;24.85;31.18
39309;BME280;26019;47.510;19.122;2023-04-30T14:53:56;100151.75;;;21.10;42.78
39309;BME280;26019;47.510;19.122;2023-04-30T15:03:59;100170.63;;;19.94;46.75
39309;BME280;26019;47.510;19.122;2023-04-30T15:14:01;100185.13;;;19.63;50.79
39309;BME280;26019;47.510;19.122;2023-04-30T15:24:03;100191.19;;;19.04;55.73
39309;BME280;26019;47.510;19.122;2023-04-30T15:34:05;100200.56;;;19.10;57.50
39309;BME280;26019;47.510;19.122;2023-04-30T15:44:07;100209.97;;;18.73;58.73
39309;BME280;26019;47.510;19.122;2023-04-30T15:54:08;100217.44;;;18.17;73.41
39309;BME280;26019;47.510;19.122;2023-04-30T16:04:11;100237.31;;;17.99;93.85
39309;BME280;26019;47.510;19.122;2023-04-30T16:14:13;100234.22;;;17.14;100.00
39309;BME280;26019;47.510;19.122;2023-04-30T16:24:15;100223.53;;;16.13;100.00
39309;BME280;26019;47.510;19.122;2023-04-30T16:34:19;100229.63;;;15.52;100.00
39309;BME280;26019;47.510;19.122;2023-04-30T16:44:21;100239.72;;;15.94;100.00
39309;BME280;26019;47.510;19.122;2023-04-30T16:54:24;100234.56;;;15.93;100.00
39309;BME280;26019;47.510;19.122;2023-04-30T17:04:31;100232.72;;;15.96;100.00
39309;BME280;26019;47.510;19.122;2023-04-30T17:14:35;100243.63;;;15.48;100.00
39309;BME280;26019;47.510;19.122;2023-04-30T17:24:38;100241.31;;;15.04;100.00
39309;BME280;26019;47.510;19.122;2023-04-30T17:34:46;100261.88;;;15.13;100.00
39309;BME280;26019;47.510;19.122;2023-04-30T17:44:50;100258.72;;;15.02;100.00
39309;BME280;26019;47.510;19.122;2023-04-30T17:54:52;100265.78;;;14.97;100.00
39309;BME280;26019;47.510;19.122;2023-04-30T18:04:54;100273.94;;;14.83;100.00
39309;BME280;26019;47.510;19.122;2023-04-30T18:14:58;100279.34;;;14.73;100.00
39309;BME280;26019;47.510;19.122;2023-04-30T18:25:04;100303.75;;;14.66;100.00
39309;BME280;26019;47.510;19.122;2023-04-30T18:35:09;100323.69;;;14.69;100.00
39309;BME280;26019;47.510;19.122;2023-04-30T18:45:11;100330.88;;;14.56;100.00
39309;BME280;26019;47.510;19.122;2023-04-30T18:55:12;100341.84;;;14.28;100.00
39309;BME280;26019;47.510;19.122;2023-04-30T19:05:16;100343.44;;;13.91;100.00
39309;BME280;26019;47.510;19.122;2023-04-30T19:15:19;100345.13;;;13.47;100.00
39309;BME280;26019;47.510;19.122;2023-04-30T19:25:21;100352.56;;;13.15;100.00
39309;BME280;26019;47.510;19.122;2023-04-30T19:35:24;100360.91;;;12.76;100.00
39309;BME280;26019;47.510;19.122;2023-04-30T19:45:26;100361.13;;;12.59;100.00
39309;BME280;26019;47.510;19.122;2023-04-30T19:55:30;100369.97;;;12.44;100.00
39309;BME280;26019;47.510;19.122;2023-04-30T20:05:39;100377.31;;;12.09;100.00
39309;BME280;26019;47.510;19.122;2023-04-30T20:15:43;100380.81;;;12.05;100.00
39309;BME280;26019;47.510;19.122;2023-04-30T20:25:55;100409.47;;;11.85;100.00
39309;BME280;26019;47.510;19.122;2023-04-30T20:35:58;100406.91;;;11.82;100.00
39309;BME280;26019;47.510;19.122;2023-04-30T20:46:08;100421.75;;;11.64;100.00
39309;BME280;26019;47.510;19.122;2023-04-30T20:56:10;100421.91;;;11.44;100.00
39309;BME280;26019;47.510;19.122;2023-04-30T21:06:12;100436.59;;;11.39;100.00
39309;BME280;26019;47.510;19.122;2023-04-30T21:16:17;100441.94;;;11.17;100.00
39309;BME280;26019;47.510;19.122;2023-04-30T21:26:20;100463.63;;;10.93;100.00
39309;BME280;26019;47.510;19.122;2023-04-30T21:36:22;100466.28;;;10.82;100.00
39309;BME280;26019;47.510;19.122;2023-04-30T21:46:24;100478.31;;;10.89;100.00
39309;BME280;26019;47.510;19.122;2023-04-30T21:56:26;100495.56;;;10.81;100.00
39309;BME280;26019;47.510;19.122;2023-04-30T22:06:30;100504.28;;;10.55;100.00
39309;BME280;26019;47.510;19.122;2023-04-30T22:16:37;100503.44;;;10.30;100.00
39309;BME280;26019;47.510;19.122;2023-04-30T22:26:40;100513.78;;;10.21;100.00
39309;BME280;26019;47.510;19.122;2023-04-30T22:36:48;100508.63;;;10.13;100.00
39309;BME280;26019;47.510;19.122;2023-04-30T22:46:51;100513.78;;;9.94;100.00
39309;BME280;26019;47.510;19.122;2023-04-30T22:56:53;100521.53;;;9.73;100.00
39309;BME280;26019;47.510;19.122;2023-04-30T23:06:55;100524.97;;;9.54;100.00
39309;BME280;26019;47.510;19.122;2023-04-30T23:16:59;100530.13;;;9.62;100.00
39309;BME280;26019;47.510;19.122;2023-04-30T23:27:08;100531.88;;;9.60;100.00
39309;BME280;26019;47.510;19.122;2023-04-30T23:37:11;100535.28;;;9.65;100.00
39309;BME280;26019;47.510;19.122;2023-04-30T23:47:20;100542.97;;;9.26;100.00
39309;BME280;26019;47.510;19.122;2023-04-30T23:57:25;100531.72;;;9.10;100.00
